sensor_id;sensor_type;location;lat;lon;timestamp;P1;durP1;ratioP1;P2;durP2;ratioP2
21274;SDS011;36472;52.170;20.884;2022-08-01T00:00:10;4.07;;;3.25;;
21274;SDS011;36472;52.170;20.884;2022-08-01T00:03:00;6.35;;;3.65;;
21274;SDS011;36472;52.170;20.884;2022-08-01T00:05:29;3.60;;;3.30;;
21274;SDS011;36472;52.170;20.884;2022-08-01T00:07:58;7.28;;;3.60;;
21274;SDS011;36472;52.170;20.884;2022-08-01T00:10:27;5.47;;;3.38;;
21274;SDS011;36472;52.170;20.884;2022-08-01T00:12:57;5.20;;;3.22;;
21274;SDS011;36472;52.170;20.884;2022-08-01T00:15:26;3.45;;;3.08;;
21274;SDS011;36472;52.170;20.884;2022-08-01T00:17:54;6.88;;;3.63;;
21274;SDS011;36472;52.170;20.884;2022-08-01T00:20:23;6.40;;;3.70;;
21274;SDS011;36472;52.170;20.884;2022-08-01T00:22:52;5.20;;;4.00;;
21274;SDS011;36472;52.170;20.884;2022-08-01T00:25:21;5.80;;;3.08;;
21274;SDS011;36472;52.170;20.884;2022-08-01T00:28:01;6.53;;;3.60;;
21274;SDS011;36472;52.170;20.884;2022-08-01T00:30:31;5.93;;;3.28;;
21274;SDS011;36472;52.170;20.884;2022-08-01T00:32:59;7.10;;;3.25;;
21274;SDS011;36472;52.170;20.884;2022-08-01T00:35:28;5.43;;;3.70;;
21274;SDS011;36472;52.170;20.884;2022-08-01T00:37:57;4.13;;;3.28;;
21274;SDS011;36472;52.170;20.884;2022-08-01T00:40:26;6.60;;;3.60;;
21274;SDS011;36472;52.170;20.884;2022-08-01T00:42:54;4.95;;;3.67;;
21274;SDS011;36472;52.170;20.884;2022-08-01T00:45:25;6.35;;;4.55;;
21274;SDS011;36472;52.170;20.884;2022-08-01T00:47:53;6.35;;;3.67;;
21274;SDS011;36472;52.170;20.884;2022-08-01T00:50:22;9.55;;;4.18;;
21274;SDS011;36472;52.170;20.884;2022-08-01T00:52:51;4.32;;;3.60;;
21274;SDS011;36472;52.170;20.884;2022-08-01T00:55:23;4.93;;;3.90;;
21274;SDS011;36472;52.170;20.884;2022-08-01T00:57:52;6.28;;;3.92;;
21274;SDS011;36472;52.170;20.884;2022-08-01T01:00:33;7.45;;;3.63;;
21274;SDS011;36472;52.170;20.884;2022-08-01T01:03:20;4.25;;;3.58;;
21274;SDS011;36472;52.170;20.884;2022-08-01T01:06:13;5.15;;;4.15;;
21274;SDS011;36472;52.170;20.884;2022-08-01T01:08:58;5.25;;;4.25;;
21274;SDS011;36472;52.170;20.884;2022-08-01T01:11:47;6.45;;;4.22;;
21274;SDS011;36472;52.170;20.884;2022-08-01T01:14:41;5.93;;;3.95;;
21274;SDS011;36472;52.170;20.884;2022-08-01T01:17:21;8.10;;;4.53;;
21274;SDS011;36472;52.170;20.884;2022-08-01T01:20:17;6.40;;;4.75;;
21274;SDS011;36472;52.170;20.884;2022-08-01T01:22:55;8.00;;;3.90;;
21274;SDS011;36472;52.170;20.884;2022-08-01T01:25:46;10.35;;;4.45;;
21274;SDS011;36472;52.170;20.884;2022-08-01T01:28:40;6.10;;;4.28;;
21274;SDS011;36472;52.170;20.884;2022-08-01T01:31:39;6.72;;;3.78;;
21274;SDS011;36472;52.170;20.884;2022-08-01T01:34:15;8.57;;;4.57;;
21274;SDS011;36472;52.170;20.884;2022-08-01T01:36:50;6.07;;;3.95;;
21274;SDS011;36472;52.170;20.884;2022-08-01T01:39:22;7.05;;;4.10;;
21274;SDS011;36472;52.170;20.884;2022-08-01T01:41:56;5.57;;;3.60;;
21274;SDS011;36472;52.170;20.884;2022-08-01T01:44:28;7.65;;;3.65;;
21274;SDS011;36472;52.170;20.884;2022-08-01T01:46:59;7.28;;;3.90;;
21274;SDS011;36472;52.170;20.884;2022-08-01T01:49:29;5.05;;;3.95;;
21274;SDS011;36472;52.170;20.884;2022-08-01T01:52:01;8.00;;;4.20;;
21274;SDS011;36472;52.170;20.884;2022-08-01T01:54:33;6.32;;;4.10;;
21274;SDS011;36472;52.170;20.884;2022-08-01T01:57:05;7.78;;;4.68;;
21274;SDS011;36472;52.170;20.884;2022-08-01T01:59:38;5.72;;;4.25;;
21274;SDS011;36472;52.170;20.884;2022-08-01T02:02:09;6.28;;;3.80;;
21274;SDS011;36472;52.170;20.884;2022-08-01T02:04:43;4.22;;;3.55;;
21274;SDS011;36472;52.170;20.884;2022-08-01T02:07:17;7.00;;;4.22;;
21274;SDS011;36472;52.170;20.884;2022-08-01T02:09:51;5.28;;;3.35;;
21274;SDS011;36472;52.170;20.884;2022-08-01T02:12:22;7.38;;;4.55;;
21274;SDS011;36472;52.170;20.884;2022-08-01T02:14:54;11.68;;;4.60;;
21274;SDS011;36472;52.170;20.884;2022-08-01T02:17:25;7.15;;;3.90;;
21274;SDS011;36472;52.170;20.884;2022-08-01T02:19:56;6.38;;;4.50;;
21274;SDS011;36472;52.170;20.884;2022-08-01T02:22:26;8.50;;;4.47;;
21274;SDS011;36472;52.170;20.884;2022-08-01T02:25:00;3.97;;;3.28;;
21274;SDS011;36472;52.170;20.884;2022-08-01T02:27:39;4.97;;;3.50;;
21274;SDS011;36472;52.170;20.884;2022-08-01T02:30:14;9.07;;;4.35;;
21274;SDS011;36472;52.170;20.884;2022-08-01T02:32:45;7.63;;;4.38;;
21274;SDS011;36472;52.170;20.884;2022-08-01T02:35:19;7.38;;;3.95;;
21274;SDS011;36472;52.170;20.884;2022-08-01T02:37:53;7.88;;;4.35;;
21274;SDS011;36472;52.170;20.884;2022-08-01T02:40:26;4.85;;;3.75;;
21274;SDS011;36472;52.170;20.884;2022-08-01T02:43:01;6.45;;;3.75;;
21274;SDS011;36472;52.170;20.884;2022-08-01T02:45:34;5.65;;;3.53;;
21274;SDS011;36472;52.170;20.884;2022-08-01T02:48:11;7.28;;;3.92;;
21274;SDS011;36472;52.170;20.884;2022-08-01T02:50:45;5.57;;;4.22;;
21274;SDS011;36472;52.170;20.884;2022-08-01T02:53:18;6.97;;;4.25;;
21274;SDS011;36472;52.170;20.884;2022-08-01T02:56:10;5.80;;;4.05;;
21274;SDS011;36472;52.170;20.884;2022-08-01T02:58:41;14.07;;;5.03;;
21274;SDS011;36472;52.170;20.884;2022-08-01T03:01:14;7.38;;;4.63;;
21274;SDS011;36472;52.170;20.884;2022-08-01T03:03:46;7.60;;;4.15;;
21274;SDS011;36472;52.170;20.884;2022-08-01T03:06:15;7.72;;;4.63;;
21274;SDS011;36472;52.170;20.884;2022-08-01T03:08:46;5.18;;;4.07;;
21274;SDS011;36472;52.170;20.884;2022-08-01T03:11:16;10.80;;;5.72;;
21274;SDS011;36472;52.170;20.884;2022-08-01T03:13:47;5.57;;;3.90;;
21274;SDS011;36472;52.170;20.884;2022-08-01T03:16:21;8.13;;;4.50;;
21274;SDS011;36472;52.170;20.884;2022-08-01T03:18:54;9.35;;;4.53;;
21274;SDS011;36472;52.170;20.884;2022-08-01T03:21:24;5.43;;;4.93;;
21274;SDS011;36472;52.170;20.884;2022-08-01T03:23:55;8.57;;;4.35;;
21274;SDS011;36472;52.170;20.884;2022-08-01T03:26:28;6.88;;;4.35;;
21274;SDS011;36472;52.170;20.884;2022-08-01T03:29:02;10.45;;;4.85;;
21274;SDS011;36472;52.170;20.884;2022-08-01T03:31:36;10.30;;;5.82;;
21274;SDS011;36472;52.170;20.884;2022-08-01T03:34:09;7.05;;;5.30;;
21274;SDS011;36472;52.170;20.884;2022-08-01T03:36:41;8.90;;;5.20;;
21274;SDS011;36472;52.170;20.884;2022-08-01T03:39:16;12.90;;;6.57;;
21274;SDS011;36472;52.170;20.884;2022-08-01T03:41:51;7.80;;;5.10;;
21274;SDS011;36472;52.170;20.884;2022-08-01T03:44:26;7.80;;;5.78;;
21274;SDS011;36472;52.170;20.884;2022-08-01T03:47:04;6.88;;;5.63;;
21274;SDS011;36472;52.170;20.884;2022-08-01T03:49:37;5.85;;;5.25;;
21274;SDS011;36472;52.170;20.884;2022-08-01T03:52:12;10.95;;;6.10;;
21274;SDS011;36472;52.170;20.884;2022-08-01T03:54:42;11.27;;;6.45;;
21274;SDS011;36472;52.170;20.884;2022-08-01T03:57:17;6.85;;;5.95;;
21274;SDS011;36472;52.170;20.884;2022-08-01T04:00:03;6.32;;;5.22;;
21274;SDS011;36472;52.170;20.884;2022-08-01T04:02:40;10.60;;;5.95;;
21274;SDS011;36472;52.170;20.884;2022-08-01T04:05:09;7.43;;;5.72;;
21274;SDS011;36472;52.170;20.884;2022-08-01T04:07:38;9.82;;;6.07;;
21274;SDS011;36472;52.170;20.884;2022-08-01T04:10:10;9.10;;;5.63;;
21274;SDS011;36472;52.170;20.884;2022-08-01T04:12:39;7.30;;;5.90;;
21274;SDS011;36472;52.170;20.884;2022-08-01T04:15:08;6.55;;;5.75;;
21274;SDS011;36472;52.170;20.884;2022-08-01T04:17:36;7.72;;;5.47;;
21274;SDS011;36472;52.170;20.884;2022-08-01T04:20:07;7.80;;;5.88;;
21274;SDS011;36472;52.170;20.884;2022-08-01T04:22:39;5.88;;;5.28;;
21274;SDS011;36472;52.170;20.884;2022-08-01T04:25:10;8.07;;;6.10;;
21274;SDS011;36472;52.170;20.884;2022-08-01T04:27:47;10.15;;;6.18;;
21274;SDS011;36472;52.170;20.884;2022-08-01T04:30:20;8.85;;;5.90;;
21274;SDS011;36472;52.170;20.884;2022-08-01T04:32:55;6.43;;;5.10;;
21274;SDS011;36472;52.170;20.884;2022-08-01T04:35:29;6.03;;;4.75;;
21274;SDS011;36472;52.170;20.884;2022-08-01T04:38:21;6.60;;;4.82;;
21274;SDS011;36472;52.170;20.884;2022-08-01T04:40:54;8.20;;;5.07;;
21274;SDS011;36472;52.170;20.884;2022-08-01T04:43:34;6.60;;;5.10;;
21274;SDS011;36472;52.170;20.884;2022-08-01T04:46:04;6.82;;;4.93;;
21274;SDS011;36472;52.170;20.884;2022-08-01T04:48:36;7.30;;;5.30;;
21274;SDS011;36472;52.170;20.884;2022-08-01T04:51:12;6.90;;;5.13;;
21274;SDS011;36472;52.170;20.884;2022-08-01T04:53:43;5.25;;;4.75;;
21274;SDS011;36472;52.170;20.884;2022-08-01T04:56:13;8.10;;;5.63;;
21274;SDS011;36472;52.170;20.884;2022-08-01T04:58:42;6.60;;;5.05;;
21274;SDS011;36472;52.170;20.884;2022-08-01T05:01:12;8.75;;;5.97;;
21274;SDS011;36472;52.170;20.884;2022-08-01T05:03:41;7.38;;;6.68;;
21274;SDS011;36472;52.170;20.884;2022-08-01T05:06:12;8.85;;;5.70;;
21274;SDS011;36472;52.170;20.884;2022-08-01T05:08:41;7.43;;;6.00;;
21274;SDS011;36472;52.170;20.884;2022-08-01T05:11:10;13.18;;;7.20;;
21274;SDS011;36472;52.170;20.884;2022-08-01T05:13:39;7.85;;;7.15;;
21274;SDS011;36472;52.170;20.884;2022-08-01T05:16:07;7.93;;;6.90;;
21274;SDS011;36472;52.170;20.884;2022-08-01T05:18:36;7.22;;;6.50;;
21274;SDS011;36472;52.170;20.884;2022-08-01T05:21:06;7.80;;;7.00;;
21274;SDS011;36472;52.170;20.884;2022-08-01T05:23:36;7.72;;;6.95;;
21274;SDS011;36472;52.170;20.884;2022-08-01T05:26:09;15.85;;;8.65;;
21274;SDS011;36472;52.170;20.884;2022-08-01T05:28:41;7.38;;;6.65;;
21274;SDS011;36472;52.170;20.884;2022-08-01T05:31:10;8.38;;;7.53;;
21274;SDS011;36472;52.170;20.884;2022-08-01T05:33:39;10.52;;;8.52;;
21274;SDS011;36472;52.170;20.884;2022-08-01T05:36:07;8.38;;;7.55;;
21274;SDS011;36472;52.170;20.884;2022-08-01T05:38:37;8.32;;;7.40;;
21274;SDS011;36472;52.170;20.884;2022-08-01T05:41:06;10.02;;;8.18;;
21274;SDS011;36472;52.170;20.884;2022-08-01T05:43:35;8.20;;;7.50;;
21274;SDS011;36472;52.170;20.884;2022-08-01T05:46:04;7.65;;;6.90;;
21274;SDS011;36472;52.170;20.884;2022-08-01T05:48:32;8.75;;;7.22;;
21274;SDS011;36472;52.170;20.884;2022-08-01T05:51:01;8.07;;;7.35;;
21274;SDS011;36472;52.170;20.884;2022-08-01T05:53:30;6.70;;;5.93;;
21274;SDS011;36472;52.170;20.884;2022-08-01T05:56:02;11.45;;;7.10;;
21274;SDS011;36472;52.170;20.884;2022-08-01T05:58:31;8.05;;;7.25;;
21274;SDS011;36472;52.170;20.884;2022-08-01T06:01:00;9.52;;;7.22;;
21274;SDS011;36472;52.170;20.884;2022-08-01T06:03:29;8.40;;;6.15;;
21274;SDS011;36472;52.170;20.884;2022-08-01T06:06:00;8.55;;;6.45;;
21274;SDS011;36472;52.170;20.884;2022-08-01T06:08:28;8.10;;;6.15;;
21274;SDS011;36472;52.170;20.884;2022-08-01T06:10:57;6.38;;;5.80;;
21274;SDS011;36472;52.170;20.884;2022-08-01T06:13:28;7.03;;;6.32;;
21274;SDS011;36472;52.170;20.884;2022-08-01T06:15:57;5.72;;;5.05;;
21274;SDS011;36472;52.170;20.884;2022-08-01T06:18:25;13.70;;;5.65;;
21274;SDS011;36472;52.170;20.884;2022-08-01T06:20:54;7.55;;;5.03;;
21274;SDS011;36472;52.170;20.884;2022-08-01T06:23:23;8.25;;;5.28;;
21274;SDS011;36472;52.170;20.884;2022-08-01T06:25:58;7.30;;;4.93;;
21274;SDS011;36472;52.170;20.884;2022-08-01T06:28:28;4.68;;;4.25;;
21274;SDS011;36472;52.170;20.884;2022-08-01T06:30:57;7.07;;;4.10;;
21274;SDS011;36472;52.170;20.884;2022-08-01T06:33:27;5.90;;;5.05;;
21274;SDS011;36472;52.170;20.884;2022-08-01T06:35:56;5.78;;;4.32;;
21274;SDS011;36472;52.170;20.884;2022-08-01T06:38:24;3.83;;;3.53;;
21274;SDS011;36472;52.170;20.884;2022-08-01T06:40:53;4.57;;;3.97;;
21274;SDS011;36472;52.170;20.884;2022-08-01T06:43:22;4.25;;;3.85;;
21274;SDS011;36472;52.170;20.884;2022-08-01T06:45:52;5.03;;;3.50;;
21274;SDS011;36472;52.170;20.884;2022-08-01T06:48:21;4.72;;;3.63;;
21274;SDS011;36472;52.170;20.884;2022-08-01T06:50:50;4.10;;;3.10;;
21274;SDS011;36472;52.170;20.884;2022-08-01T06:53:35;5.93;;;3.65;;
21274;SDS011;36472;52.170;20.884;2022-08-01T06:56:05;3.72;;;2.70;;
21274;SDS011;36472;52.170;20.884;2022-08-01T06:58:35;5.57;;;3.00;;
21274;SDS011;36472;52.170;20.884;2022-08-01T07:01:06;4.60;;;3.60;;
21274;SDS011;36472;52.170;20.884;2022-08-01T07:03:35;5.55;;;3.60;;
21274;SDS011;36472;52.170;20.884;2022-08-01T07:06:21;5.97;;;3.47;;
21274;SDS011;36472;52.170;20.884;2022-08-01T07:08:51;3.28;;;2.97;;
21274;SDS011;36472;52.170;20.884;2022-08-01T07:11:22;3.22;;;2.92;;
21274;SDS011;36472;52.170;20.884;2022-08-01T07:13:51;4.75;;;2.78;;
21274;SDS011;36472;52.170;20.884;2022-08-01T07:16:21;3.70;;;3.08;;
21274;SDS011;36472;52.170;20.884;2022-08-01T07:18:50;3.65;;;3.25;;
21274;SDS011;36472;52.170;20.884;2022-08-01T07:21:19;5.25;;;3.08;;
21274;SDS011;36472;52.170;20.884;2022-08-01T07:24:07;3.40;;;2.88;;
21274;SDS011;36472;52.170;20.884;2022-08-01T07:26:40;4.03;;;2.55;;
21274;SDS011;36472;52.170;20.884;2022-08-01T07:29:21;3.40;;;3.10;;
21274;SDS011;36472;52.170;20.884;2022-08-01T07:31:52;2.33;;;2.03;;
21274;SDS011;36472;52.170;20.884;2022-08-01T07:34:23;3.75;;;2.60;;
21274;SDS011;36472;52.170;20.884;2022-08-01T07:36:53;5.10;;;2.65;;
21274;SDS011;36472;52.170;20.884;2022-08-01T07:39:22;4.07;;;2.58;;
21274;SDS011;36472;52.170;20.884;2022-08-01T07:41:50;2.78;;;2.10;;
21274;SDS011;36472;52.170;20.884;2022-08-01T07:44:33;3.95;;;2.03;;
21274;SDS011;36472;52.170;20.884;2022-08-01T07:47:04;2.10;;;1.90;;
21274;SDS011;36472;52.170;20.884;2022-08-01T07:49:34;4.20;;;2.28;;
21274;SDS011;36472;52.170;20.884;2022-08-01T07:52:07;3.25;;;1.98;;
21274;SDS011;36472;52.170;20.884;2022-08-01T07:54:36;2.58;;;2.28;;
21274;SDS011;36472;52.170;20.884;2022-08-01T07:57:05;3.13;;;1.73;;
21274;SDS011;36472;52.170;20.884;2022-08-01T07:59:34;2.50;;;1.88;;
21274;SDS011;36472;52.170;20.884;2022-08-01T08:02:04;2.20;;;2.00;;
21274;SDS011;36472;52.170;20.884;2022-08-01T08:04:33;3.10;;;1.88;;
21274;SDS011;36472;52.170;20.884;2022-08-01T08:07:02;3.45;;;1.65;;
21274;SDS011;36472;52.170;20.884;2022-08-01T08:09:32;1.70;;;1.60;;
21274;SDS011;36472;52.170;20.884;2022-08-01T08:12:04;3.10;;;1.67;;
21274;SDS011;36472;52.170;20.884;2022-08-01T08:14:35;3.15;;;1.77;;
21274;SDS011;36472;52.170;20.884;2022-08-01T08:17:05;4.05;;;2.00;;
21274;SDS011;36472;52.170;20.884;2022-08-01T08:19:34;3.70;;;1.90;;
21274;SDS011;36472;52.170;20.884;2022-08-01T08:22:06;2.00;;;1.67;;
21274;SDS011;36472;52.170;20.884;2022-08-01T08:24:36;1.80;;;1.70;;
21274;SDS011;36472;52.170;20.884;2022-08-01T08:27:12;5.22;;;1.70;;
21274;SDS011;36472;52.170;20.884;2022-08-01T08:29:42;2.38;;;1.77;;
21274;SDS011;36472;52.170;20.884;2022-08-01T08:32:12;1.88;;;1.40;;
21274;SDS011;36472;52.170;20.884;2022-08-01T08:34:41;1.30;;;1.20;;
21274;SDS011;36472;52.170;20.884;2022-08-01T08:37:10;2.13;;;1.55;;
21274;SDS011;36472;52.170;20.884;2022-08-01T08:39:39;3.10;;;1.77;;
21274;SDS011;36472;52.170;20.884;2022-08-01T08:42:09;1.63;;;1.52;;
21274;SDS011;36472;52.170;20.884;2022-08-01T08:44:40;1.48;;;1.38;;
21274;SDS011;36472;52.170;20.884;2022-08-01T08:47:12;2.15;;;1.73;;
21274;SDS011;36472;52.170;20.884;2022-08-01T08:49:46;2.42;;;1.55;;
21274;SDS011;36472;52.170;20.884;2022-08-01T08:52:17;3.35;;;1.70;;
21274;SDS011;36472;52.170;20.884;2022-08-01T08:54:48;2.78;;;1.48;;
21274;SDS011;36472;52.170;20.884;2022-08-01T08:57:20;2.83;;;1.20;;
21274;SDS011;36472;52.170;20.884;2022-08-01T08:59:49;5.50;;;1.50;;
21274;SDS011;36472;52.170;20.884;2022-08-01T09:02:22;3.22;;;1.50;;
21274;SDS011;36472;52.170;20.884;2022-08-01T09:04:51;2.05;;;1.45;;
21274;SDS011;36472;52.170;20.884;2022-08-01T09:07:20;2.15;;;1.48;;
21274;SDS011;36472;52.170;20.884;2022-08-01T09:09:50;1.60;;;1.08;;
21274;SDS011;36472;52.170;20.884;2022-08-01T09:12:19;2.05;;;1.30;;
21274;SDS011;36472;52.170;20.884;2022-08-01T09:14:48;1.92;;;1.35;;
21274;SDS011;36472;52.170;20.884;2022-08-01T09:17:20;2.25;;;1.10;;
21274;SDS011;36472;52.170;20.884;2022-08-01T09:19:51;2.17;;;1.48;;
21274;SDS011;36472;52.170;20.884;2022-08-01T09:22:24;3.08;;;1.40;;
21274;SDS011;36472;52.170;20.884;2022-08-01T09:24:59;2.05;;;1.30;;
21274;SDS011;36472;52.170;20.884;2022-08-01T09:27:35;2.67;;;1.50;;
21274;SDS011;36472;52.170;20.884;2022-08-01T16:07:49;4.80;;;1.98;;
21274;SDS011;36472;52.170;20.884;2022-08-01T16:10:27;2.28;;;2.08;;
21274;SDS011;36472;52.170;20.884;2022-08-01T16:12:56;3.60;;;1.88;;
21274;SDS011;36472;52.170;20.884;2022-08-01T16:15:33;4.18;;;1.88;;
21274;SDS011;36472;52.170;20.884;2022-08-01T16:18:04;2.08;;;1.88;;
21274;SDS011;36472;52.170;20.884;2022-08-01T16:20:35;2.70;;;2.05;;
21274;SDS011;36472;52.170;20.884;2022-08-01T16:23:10;2.47;;;2.28;;
21274;SDS011;36472;52.170;20.884;2022-08-01T16:25:39;3.53;;;2.22;;
21274;SDS011;36472;52.170;20.884;2022-08-01T16:28:09;2.90;;;2.15;;
21274;SDS011;36472;52.170;20.884;2022-08-01T16:30:40;2.13;;;1.92;;
21274;SDS011;36472;52.170;20.884;2022-08-01T16:33:29;3.05;;;1.75;;
21274;SDS011;36472;52.170;20.884;2022-08-01T16:36:20;6.10;;;2.67;;
21274;SDS011;36472;52.170;20.884;2022-08-01T16:38:50;4.75;;;2.55;;
21274;SDS011;36472;52.170;20.884;2022-08-01T16:41:19;1.92;;;1.60;;
21274;SDS011;36472;52.170;20.884;2022-08-01T16:43:48;2.53;;;1.70;;
21274;SDS011;36472;52.170;20.884;2022-08-01T16:46:20;3.92;;;2.33;;
21274;SDS011;36472;52.170;20.884;2022-08-01T16:48:51;2.13;;;1.70;;
21274;SDS011;36472;52.170;20.884;2022-08-01T16:51:22;3.97;;;2.20;;
21274;SDS011;36472;52.170;20.884;2022-08-01T16:53:51;3.65;;;2.08;;
21274;SDS011;36472;52.170;20.884;2022-08-01T16:56:19;3.90;;;2.40;;
21274;SDS011;36472;52.170;20.884;2022-08-01T16:58:48;3.92;;;2.10;;
21274;SDS011;36472;52.170;20.884;2022-08-01T17:01:17;3.25;;;1.95;;
21274;SDS011;36472;52.170;20.884;2022-08-01T17:04:05;1.83;;;1.70;;
21274;SDS011;36472;52.170;20.884;2022-08-01T17:06:36;2.10;;;1.80;;
21274;SDS011;36472;52.170;20.884;2022-08-01T17:09:04;2.03;;;1.70;;
21274;SDS011;36472;52.170;20.884;2022-08-01T17:11:35;4.43;;;1.95;;
21274;SDS011;36472;52.170;20.884;2022-08-01T17:14:03;2.33;;;2.08;;
21274;SDS011;36472;52.170;20.884;2022-08-01T17:16:32;4.00;;;1.80;;
21274;SDS011;36472;52.170;20.884;2022-08-01T17:19:01;2.10;;;1.92;;
21274;SDS011;36472;52.170;20.884;2022-08-01T17:21:30;2.30;;;2.00;;
21274;SDS011;36472;52.170;20.884;2022-08-01T17:24:00;6.13;;;3.83;;
21274;SDS011;36472;52.170;20.884;2022-08-01T17:26:29;9.38;;;4.47;;
21274;SDS011;36472;52.170;20.884;2022-08-01T17:28:58;11.25;;;5.50;;
21274;SDS011;36472;52.170;20.884;2022-08-01T17:31:26;6.03;;;3.10;;
21274;SDS011;36472;52.170;20.884;2022-08-01T17:33:56;6.43;;;3.28;;
21274;SDS011;36472;52.170;20.884;2022-08-01T17:36:24;5.93;;;3.10;;
21274;SDS011;36472;52.170;20.884;2022-08-01T17:38:53;5.85;;;3.20;;
21274;SDS011;36472;52.170;20.884;2022-08-01T17:41:24;4.53;;;3.00;;
21274;SDS011;36472;52.170;20.884;2022-08-01T17:43:52;2.75;;;2.20;;
21274;SDS011;36472;52.170;20.884;2022-08-01T17:46:21;4.88;;;2.60;;
21274;SDS011;36472;52.170;20.884;2022-08-01T17:48:50;3.80;;;2.45;;
21274;SDS011;36472;52.170;20.884;2022-08-01T17:51:19;3.42;;;2.83;;
21274;SDS011;36472;52.170;20.884;2022-08-01T17:53:48;3.25;;;2.80;;
21274;SDS011;36472;52.170;20.884;2022-08-01T17:56:24;3.47;;;2.55;;
21274;SDS011;36472;52.170;20.884;2022-08-01T17:58:54;3.70;;;2.72;;
21274;SDS011;36472;52.170;20.884;2022-08-01T18:01:23;4.10;;;2.88;;
21274;SDS011;36472;52.170;20.884;2022-08-01T18:03:53;4.85;;;2.60;;
21274;SDS011;36472;52.170;20.884;2022-08-01T18:06:24;4.60;;;2.50;;
21274;SDS011;36472;52.170;20.884;2022-08-01T18:08:54;3.72;;;2.38;;
21274;SDS011;36472;52.170;20.884;2022-08-01T18:11:28;4.72;;;2.42;;
21274;SDS011;36472;52.170;20.884;2022-08-01T18:14:03;5.60;;;2.42;;
21274;SDS011;36472;52.170;20.884;2022-08-01T18:16:32;3.05;;;2.53;;
21274;SDS011;36472;52.170;20.884;2022-08-01T18:19:01;2.70;;;2.50;;
21274;SDS011;36472;52.170;20.884;2022-08-01T18:21:32;2.75;;;2.50;;
21274;SDS011;36472;52.170;20.884;2022-08-01T18:24:08;3.13;;;2.50;;
21274;SDS011;36472;52.170;20.884;2022-08-01T18:26:38;3.55;;;2.25;;
21274;SDS011;36472;52.170;20.884;2022-08-01T18:29:06;2.80;;;2.58;;
21274;SDS011;36472;52.170;20.884;2022-08-01T18:31:38;3.42;;;2.70;;
21274;SDS011;36472;52.170;20.884;2022-08-01T18:34:06;4.68;;;2.67;;
21274;SDS011;36472;52.170;20.884;2022-08-01T18:36:35;3.03;;;2.72;;
21274;SDS011;36472;52.170;20.884;2022-08-01T18:39:07;3.05;;;2.78;;
21274;SDS011;36472;52.170;20.884;2022-08-01T18:41:38;2.80;;;2.58;;
21274;SDS011;36472;52.170;20.884;2022-08-01T18:44:07;2.90;;;2.70;;
21274;SDS011;36472;52.170;20.884;2022-08-01T18:46:36;5.97;;;2.70;;
21274;SDS011;36472;52.170;20.884;2022-08-01T18:49:06;4.82;;;2.83;;
21274;SDS011;36472;52.170;20.884;2022-08-01T18:51:38;2.80;;;2.35;;
21274;SDS011;36472;52.170;20.884;2022-08-01T18:54:11;3.45;;;2.60;;
21274;SDS011;36472;52.170;20.884;2022-08-01T18:56:43;3.67;;;2.80;;
21274;SDS011;36472;52.170;20.884;2022-08-01T18:59:12;2.70;;;2.50;;
21274;SDS011;36472;52.170;20.884;2022-08-01T19:01:41;2.60;;;2.40;;
21274;SDS011;36472;52.170;20.884;2022-08-01T19:04:10;3.00;;;2.80;;
21274;SDS011;36472;52.170;20.884;2022-08-01T19:06:40;3.33;;;2.90;;
21274;SDS011;36472;52.170;20.884;2022-08-01T19:09:13;3.53;;;3.22;;
21274;SDS011;36472;52.170;20.884;2022-08-01T19:11:47;3.53;;;2.78;;
21274;SDS011;36472;52.170;20.884;2022-08-01T19:14:16;4.78;;;2.83;;
21274;SDS011;36472;52.170;20.884;2022-08-01T19:16:45;4.00;;;3.25;;
21274;SDS011;36472;52.170;20.884;2022-08-01T19:19:14;4.88;;;2.92;;
21274;SDS011;36472;52.170;20.884;2022-08-01T19:21:54;3.15;;;2.83;;
21274;SDS011;36472;52.170;20.884;2022-08-01T19:24:22;4.38;;;3.35;;
21274;SDS011;36472;52.170;20.884;2022-08-01T19:26:53;4.40;;;3.15;;
21274;SDS011;36472;52.170;20.884;2022-08-01T19:29:32;3.67;;;3.00;;
21274;SDS011;36472;52.170;20.884;2022-08-01T19:32:03;3.50;;;3.20;;
21274;SDS011;36472;52.170;20.884;2022-08-01T19:34:39;4.07;;;2.90;;
21274;SDS011;36472;52.170;20.884;2022-08-01T19:37:15;3.58;;;3.10;;
21274;SDS011;36472;52.170;20.884;2022-08-01T19:39:48;4.10;;;3.63;;
21274;SDS011;36472;52.170;20.884;2022-08-01T19:42:19;3.88;;;3.35;;
21274;SDS011;36472;52.170;20.884;2022-08-01T19:44:51;3.35;;;3.05;;
21274;SDS011;36472;52.170;20.884;2022-08-01T19:47:21;2.88;;;2.58;;
21274;SDS011;36472;52.170;20.884;2022-08-01T19:49:50;3.92;;;3.40;;
21274;SDS011;36472;52.170;20.884;2022-08-01T19:52:19;3.90;;;3.40;;
21274;SDS011;36472;52.170;20.884;2022-08-01T19:54:53;6.25;;;3.80;;
21274;SDS011;36472;52.170;20.884;2022-08-01T19:57:25;4.38;;;3.47;;
21274;SDS011;36472;52.170;20.884;2022-08-01T20:00:11;3.67;;;3.38;;
21274;SDS011;36472;52.170;20.884;2022-08-01T20:02:54;6.00;;;3.30;;
21274;SDS011;36472;52.170;20.884;2022-08-01T20:05:26;3.88;;;3.47;;
21274;SDS011;36472;52.170;20.884;2022-08-01T20:07:55;3.97;;;3.60;;
21274;SDS011;36472;52.170;20.884;2022-08-01T20:10:25;4.35;;;3.88;;
21274;SDS011;36472;52.170;20.884;2022-08-01T20:12:57;6.57;;;3.40;;
21274;SDS011;36472;52.170;20.884;2022-08-01T20:15:26;4.35;;;3.70;;
21274;SDS011;36472;52.170;20.884;2022-08-01T20:17:56;5.72;;;3.92;;
21274;SDS011;36472;52.170;20.884;2022-08-01T20:20:25;5.13;;;3.78;;
21274;SDS011;36472;52.170;20.884;2022-08-01T20:22:55;6.88;;;3.70;;
21274;SDS011;36472;52.170;20.884;2022-08-01T20:25:26;6.00;;;4.07;;
21274;SDS011;36472;52.170;20.884;2022-08-01T20:28:08;3.83;;;3.50;;
21274;SDS011;36472;52.170;20.884;2022-08-01T20:30:40;3.95;;;3.58;;
21274;SDS011;36472;52.170;20.884;2022-08-01T20:33:10;6.47;;;3.85;;
21274;SDS011;36472;52.170;20.884;2022-08-01T20:35:39;4.03;;;3.63;;
21274;SDS011;36472;52.170;20.884;2022-08-01T20:38:19;3.92;;;3.53;;
21274;SDS011;36472;52.170;20.884;2022-08-01T20:40:53;4.10;;;3.70;;
21274;SDS011;36472;52.170;20.884;2022-08-01T20:43:26;5.10;;;4.15;;
21274;SDS011;36472;52.170;20.884;2022-08-01T20:45:55;5.35;;;3.75;;
21274;SDS011;36472;52.170;20.884;2022-08-01T20:48:25;5.03;;;3.78;;
21274;SDS011;36472;52.170;20.884;2022-08-01T20:50:58;3.85;;;3.30;;
21274;SDS011;36472;52.170;20.884;2022-08-01T20:53:44;4.57;;;4.07;;
21274;SDS011;36472;52.170;20.884;2022-08-01T20:56:15;5.35;;;4.03;;
21274;SDS011;36472;52.170;20.884;2022-08-01T20:58:57;4.72;;;3.72;;
21274;SDS011;36472;52.170;20.884;2022-08-01T21:01:57;5.43;;;4.07;;
21274;SDS011;36472;52.170;20.884;2022-08-01T21:04:38;4.80;;;4.40;;
21274;SDS011;36472;52.170;20.884;2022-08-01T21:07:24;8.65;;;4.80;;
21274;SDS011;36472;52.170;20.884;2022-08-01T21:09:58;5.07;;;4.35;;
21274;SDS011;36472;52.170;20.884;2022-08-01T21:12:35;4.50;;;4.10;;
21274;SDS011;36472;52.170;20.884;2022-08-01T21:15:17;4.78;;;4.38;;
21274;SDS011;36472;52.170;20.884;2022-08-01T21:17:55;4.68;;;3.70;;
21274;SDS011;36472;52.170;20.884;2022-08-01T21:20:33;5.20;;;4.03;;
21274;SDS011;36472;52.170;20.884;2022-08-01T21:23:13;4.15;;;3.65;;
21274;SDS011;36472;52.170;20.884;2022-08-01T21:25:55;5.45;;;4.90;;
21274;SDS011;36472;52.170;20.884;2022-08-01T21:28:26;6.53;;;4.32;;
21274;SDS011;36472;52.170;20.884;2022-08-01T21:30:56;5.30;;;4.25;;
21274;SDS011;36472;52.170;20.884;2022-08-01T21:33:26;5.05;;;4.45;;
21274;SDS011;36472;52.170;20.884;2022-08-01T21:35:57;6.18;;;4.20;;
21274;SDS011;36472;52.170;20.884;2022-08-01T21:38:32;6.32;;;3.85;;
21274;SDS011;36472;52.170;20.884;2022-08-01T21:41:06;4.80;;;4.22;;